createdAt,value
2018-11-21T00:00:35.058Z,42.90
2018-11-21T00:01:38.357Z,41.15
2018-11-21T00:02:41.653Z,43.75
2018-11-21T00:03:44.949Z,44.50
2018-11-21T00:04:48.260Z,42.93
2018-11-21T00:05:51.607Z,45.83
2018-11-21T00:06:54.905Z,40.52
2018-11-21T00:07:58.202Z,47.45
2018-11-21T00:09:01.899Z,45.10
2018-11-21T00:10:08.262Z,45.65
2018-11-21T00:11:11.562Z,39.60
2018-11-21T00:12:14.904Z,38.63
2018-11-21T00:13:18.210Z,45.85
2018-11-21T00:14:21.518Z,43.33
2018-11-21T00:15:24.860Z,41.20
2018-11-21T00:16:28.163Z,42.48
2018-11-21T00:17:31.519Z,45.30
2018-11-21T00:18:35.204Z,41.70
2018-11-21T00:19:38.506Z,40.00
2018-11-21T00:20:41.885Z,45.95
2018-11-21T00:21:45.222Z,47.10
2018-11-21T00:22:48.573Z,38.45
2018-11-21T00:23:51.895Z,43.60
2018-11-21T00:24:55.199Z,41.50
2018-11-21T00:25:58.545Z,51.25
2018-11-21T00:27:01.869Z,47.75
2018-11-21T00:28:05.514Z,44.48
2018-11-21T00:29:08.840Z,45.58
2018-11-21T00:30:13.729Z,49.35
2018-11-21T00:31:17.072Z,54.77
2018-11-21T00:32:21.827Z,49.88
2018-11-21T00:33:25.129Z,47.38
2018-11-21T00:34:28.465Z,50.35
2018-11-21T00:35:31.785Z,51.58
2018-11-21T00:36:35.156Z,44.15
2018-11-21T00:37:38.597Z,46.58
2018-11-21T00:38:41.909Z,50.33
2018-11-21T00:39:45.219Z,46.85
2018-11-21T00:40:48.527Z,43.90
2018-11-21T00:41:51.861Z,44.60
2018-11-21T00:42:55.175Z,48.15
2018-11-21T00:43:58.935Z,47.85
2018-11-21T00:45:02.292Z,50.28
2018-11-21T00:46:05.943Z,50.43
2018-11-21T00:47:09.701Z,44.98
2018-11-21T00:48:13.150Z,47.08
2018-11-21T00:49:16.448Z,51.25
2018-11-21T00:50:19.793Z,46.80
2018-11-21T00:51:23.103Z,43.90
2018-11-21T00:52:26.406Z,43.50
2018-11-21T00:53:29.859Z,44.77
2018-11-21T00:54:33.169Z,50.95
2018-11-21T00:55:36.525Z,44.35
2018-11-21T00:56:39.832Z,42.70
2018-11-21T00:57:43.136Z,46.48
2018-11-21T00:58:46.449Z,44.55
2018-11-21T00:59:49.757Z,45.78
2018-11-21T01:00:53.093Z,48.17
2018-11-21T01:01:56.407Z,47.33
2018-11-21T01:03:00.154Z,42.88
2018-11-21T01:04:03.887Z,47.45
2018-11-21T01:05:07.516Z,47.13
2018-11-21T01:06:10.884Z,47.93
2018-11-21T01:07:14.199Z,48.42
2018-11-21T01:08:17.506Z,47.95
2018-11-21T01:09:20.809Z,45.60
2018-11-21T01:10:24.156Z,46.55
2018-11-21T01:11:27.488Z,44.48
2018-11-21T01:12:30.802Z,47.67
2018-11-21T01:13:34.140Z,46.18
2018-11-21T01:14:37.480Z,43.40
2018-11-21T01:15:40.848Z,44.05
2018-11-21T01:16:44.155Z,44.77
2018-11-21T01:17:47.457Z,43.30
2018-11-21T01:18:50.829Z,41.83
2018-11-21T01:19:54.128Z,45.35
2018-11-21T01:20:57.444Z,42.73
2018-11-21T01:22:00.748Z,42.83
2018-11-21T01:23:04.098Z,42.17
2018-11-21T01:24:07.409Z,44.03
2018-11-21T01:25:10.755Z,47.58
2018-11-21T01:26:14.138Z,45.58
2018-11-21T01:27:17.448Z,44.90
2018-11-21T01:28:20.775Z,43.65
2018-11-21T01:29:24.084Z,44.98
2018-11-21T01:30:27.385Z,41.77
2018-11-21T01:31:31.068Z,44.23
2018-11-21T01:32:34.771Z,39.65
2018-11-21T01:33:38.087Z,47.27
2018-11-21T01:34:41.395Z,40.75
2018-11-21T01:35:44.708Z,40.05
2018-11-21T01:36:48.082Z,43.30
2018-11-21T01:37:51.414Z,45.67
2018-11-21T01:38:54.712Z,43.13
2018-11-21T01:39:58.034Z,48.75
2018-11-21T01:41:01.336Z,44.40
2018-11-21T01:42:05.030Z,41.23
2018-11-21T01:43:08.339Z,43.40
2018-11-21T01:44:11.658Z,42.30
2018-11-21T01:45:15.007Z,41.83
2018-11-21T01:46:18.305Z,43.23
2018-11-21T01:47:21.638Z,43.48
2018-11-21T01:48:24.984Z,44.18
2018-11-21T01:49:28.302Z,44.63
2018-11-21T01:50:31.604Z,45.65
2018-11-21T01:51:34.937Z,48.85
2018-11-21T01:52:38.268Z,45.60
2018-11-21T01:53:41.632Z,44.30
2018-11-21T01:54:44.949Z,43.13
2018-11-21T01:55:48.251Z,41.42
2018-11-21T01:56:52.033Z,41.55
2018-11-21T01:57:55.386Z,41.40
2018-11-21T01:58:58.691Z,43.35
2018-11-21T02:00:02.009Z,39.20
2018-11-21T02:01:05.356Z,35.50
2018-11-21T02:02:08.664Z,42.10
2018-11-21T02:03:11.983Z,38.90
2018-11-21T02:04:15.296Z,41.25
2018-11-21T02:05:18.601Z,41.50
2018-11-21T02:06:21.947Z,45.60
2018-11-21T02:07:25.297Z,39.23
2018-11-21T02:08:28.607Z,42.33
2018-11-21T02:09:31.917Z,41.55
2018-11-21T02:10:35.232Z,39.03
2018-11-21T02:11:38.633Z,41.23
2018-11-21T02:12:41.962Z,40.17
2018-11-21T02:13:45.272Z,43.05
2018-11-21T02:14:48.988Z,41.37
2018-11-21T02:15:52.330Z,38.05
2018-11-21T02:16:55.688Z,39.75
2018-11-21T02:17:59.005Z,40.58
2018-11-21T02:19:02.314Z,45.95
2018-11-21T02:20:07.252Z,37.17
2018-11-21T02:21:10.664Z,38.45
2018-11-21T02:22:13.984Z,42.08
2018-11-21T02:23:17.723Z,41.13
2018-11-21T02:24:21.066Z,42.30
2018-11-21T02:25:24.421Z,38.48
2018-11-21T02:26:27.849Z,40.38
2018-11-21T02:27:31.221Z,37.40
2018-11-21T02:28:34.533Z,39.40
2018-11-21T02:29:37.849Z,37.05
2018-11-21T02:30:41.609Z,40.70
2018-11-21T02:31:45.321Z,38.65
2018-11-21T02:32:48.665Z,40.15
2018-11-21T02:33:51.984Z,36.58
2018-11-21T02:34:55.337Z,35.30
2018-11-21T02:35:58.650Z,36.05
2018-11-21T02:37:02.068Z,33.35
2018-11-21T02:38:05.397Z,34.15
2018-11-21T02:39:09.936Z,37.88
2018-11-21T02:40:13.235Z,41.08
2018-11-21T02:41:16.577Z,41.10
2018-11-21T02:42:19.884Z,39.40
2018-11-21T02:43:23.176Z,41.60
2018-11-21T02:44:26.492Z,40.52
2018-11-21T02:45:30.191Z,40.48
2018-11-21T02:46:33.800Z,37.58
2018-11-21T02:47:37.100Z,40.23
2018-11-21T02:48:40.410Z,41.45
2018-11-21T02:49:43.733Z,45.30
2018-11-21T02:50:47.091Z,41.00
2018-11-21T02:51:50.463Z,39.90
2018-11-21T02:52:53.836Z,41.55
2018-11-21T02:53:57.164Z,40.67
2018-11-21T02:55:00.503Z,38.95
2018-11-21T02:56:03.854Z,40.33
2018-11-21T02:57:21.896Z,38.48
2018-11-21T02:58:25.209Z,45.33
2018-11-21T02:59:28.557Z,40.67
2018-11-21T03:00:31.917Z,39.95
2018-11-21T03:01:35.173Z,40.43
2018-11-21T03:02:38.921Z,47.00
2018-11-21T03:03:42.236Z,39.55
2018-11-21T03:04:45.540Z,43.15
2018-11-21T03:05:48.841Z,43.75
2018-11-21T03:06:52.213Z,40.95
2018-11-21T03:07:56.818Z,43.30
2018-11-21T03:09:00.142Z,37.75
2018-11-21T03:10:03.453Z,38.73
2018-11-21T03:11:06.756Z,42.73
2018-11-21T03:12:10.393Z,40.33
2018-11-21T03:13:13.701Z,39.98
2018-11-21T03:14:17.001Z,38.58
2018-11-21T03:15:20.767Z,44.25
2018-11-21T03:16:24.084Z,41.70
2018-11-21T03:17:27.448Z,41.60
2018-11-21T03:18:30.832Z,44.55
2018-11-21T03:19:34.255Z,43.38
2018-11-21T03:20:37.603Z,43.85
2018-11-21T03:21:41.013Z,42.40
2018-11-21T03:22:44.338Z,41.68
2018-11-21T03:23:47.645Z,45.30
2018-11-21T03:24:50.997Z,40.95
2018-11-21T03:25:54.345Z,45.83
2018-11-21T03:26:57.655Z,46.15
2018-11-21T03:28:00.964Z,49.80
2018-11-21T03:29:04.273Z,45.00
2018-11-21T03:30:09.124Z,47.05
2018-11-21T03:31:12.468Z,42.88
2018-11-21T03:32:16.157Z,44.77
2018-11-21T03:33:19.468Z,40.52
2018-11-21T03:34:22.774Z,44.40
2018-11-21T03:35:26.081Z,47.78
2018-11-21T03:36:29.444Z,48.55
2018-11-21T03:37:32.751Z,51.65
2018-11-21T03:38:36.065Z,45.63
2018-11-21T03:39:39.366Z,42.65
2018-11-21T03:40:42.684Z,45.28
2018-11-21T03:41:46.458Z,43.78
2018-11-21T03:42:49.782Z,46.23
2018-11-21T03:43:53.072Z,40.17
2018-11-21T03:44:56.666Z,38.60
2018-11-21T03:45:59.964Z,44.27
2018-11-21T03:47:03.320Z,43.25
2018-11-21T03:48:06.631Z,41.40
2018-11-21T03:49:10.288Z,49.60
2018-11-21T03:50:13.598Z,44.20
2018-11-21T03:51:16.941Z,41.95
2018-11-21T03:52:20.320Z,43.35
2018-11-21T03:53:23.627Z,45.52
2018-11-21T03:54:26.940Z,44.73
2018-11-21T03:55:30.253Z,47.05
2018-11-21T03:56:33.772Z,42.35
2018-11-21T03:57:37.389Z,50.05
2018-11-21T03:58:40.722Z,45.83
2018-11-21T03:59:44.023Z,39.55
2018-11-21T04:00:47.373Z,42.38
2018-11-21T04:01:50.670Z,45.65
2018-11-21T04:02:55.004Z,41.13
2018-11-21T04:03:58.305Z,42.93
2018-11-21T04:05:01.601Z,44.35
2018-11-21T04:06:05.009Z,45.10
2018-11-21T04:07:08.317Z,40.03
2018-11-21T04:08:11.664Z,38.08
2018-11-21T04:09:14.973Z,42.93
2018-11-21T04:10:18.274Z,45.83
2018-11-21T04:11:21.956Z,42.35
2018-11-21T04:12:25.277Z,40.95
2018-11-21T04:13:28.956Z,39.55
2018-11-21T04:14:32.264Z,39.98
2018-11-21T04:15:35.579Z,50.35
2018-11-21T04:16:38.893Z,43.17
2018-11-21T04:17:42.209Z,36.33
2018-11-21T04:18:49.728Z,44.25
2018-11-21T04:19:53.031Z,39.03
2018-11-21T04:20:56.335Z,45.50
2018-11-21T04:21:59.661Z,41.30
2018-11-21T04:23:03.041Z,43.80
2018-11-21T04:24:06.516Z,39.78
2018-11-21T04:25:11.379Z,43.95
2018-11-21T04:26:15.447Z,47.78
2018-11-21T04:27:18.791Z,37.50
2018-11-21T04:28:22.108Z,42.98
2018-11-21T04:29:25.451Z,44.98
2018-11-21T04:30:28.768Z,45.45
2018-11-21T04:31:32.080Z,42.40
2018-11-21T04:32:35.395Z,44.80
2018-11-21T04:33:38.701Z,40.15
2018-11-21T04:34:42.053Z,39.53
2018-11-21T04:35:45.369Z,39.78
2018-11-21T04:36:48.673Z,40.90
2018-11-21T04:37:52.006Z,50.73
2018-11-21T04:39:59.153Z,43.08
2018-11-21T04:41:02.452Z,42.27
2018-11-21T04:42:06.021Z,38.53
2018-11-21T04:43:09.320Z,36.65
2018-11-21T04:44:13.079Z,44.18
2018-11-21T04:45:16.400Z,40.25
2018-11-21T04:46:19.775Z,35.85
2018-11-21T04:47:23.080Z,34.45
2018-11-21T04:48:26.383Z,47.65
2018-11-21T04:49:29.809Z,41.05
2018-11-21T04:50:33.151Z,40.50
2018-11-21T04:51:36.462Z,38.83
2018-11-21T04:52:39.860Z,43.30
2018-11-21T04:53:43.174Z,39.13
2018-11-21T04:54:46.536Z,37.53
2018-11-21T04:55:49.882Z,36.00
2018-11-21T04:56:53.187Z,41.53
2018-11-21T04:57:56.496Z,37.08
2018-11-21T04:58:59.808Z,38.73
2018-11-21T05:00:03.174Z,41.55
2018-11-21T05:01:06.499Z,41.05
2018-11-21T05:02:09.822Z,40.70
2018-11-21T05:03:13.341Z,40.90
2018-11-21T05:04:16.653Z,36.33
2018-11-21T05:05:19.993Z,35.48
2018-11-21T05:06:23.304Z,41.73
2018-11-21T05:07:26.624Z,40.28
2018-11-21T05:08:29.985Z,38.60
2018-11-21T05:09:33.292Z,36.42
2018-11-21T05:10:36.605Z,36.50
2018-11-21T05:11:39.976Z,38.67
2018-11-21T05:12:43.292Z,38.60
2018-11-21T05:13:46.607Z,45.75
2018-11-21T05:14:49.920Z,37.85
2018-11-21T05:15:53.223Z,45.50
2018-11-21T05:16:56.583Z,37.08
2018-11-21T05:17:59.899Z,41.20
2018-11-21T05:19:03.207Z,36.20
2018-11-21T05:20:06.561Z,39.65
2018-11-21T05:21:09.867Z,44.23
2018-11-21T05:22:13.218Z,38.33
2018-11-21T05:23:16.522Z,31.60
2018-11-21T05:24:19.842Z,36.28
2018-11-21T05:25:23.192Z,42.20
2018-11-21T05:26:26.505Z,55.55
2018-11-21T05:27:29.846Z,37.70
2018-11-21T05:28:33.204Z,42.93
2018-11-21T05:29:36.540Z,40.58
2018-11-21T05:30:39.858Z,39.80
2018-11-21T05:31:43.167Z,37.65
2018-11-21T05:32:46.513Z,38.63
2018-11-21T05:33:49.839Z,33.58
2018-11-21T05:34:53.172Z,40.90
2018-11-21T05:35:56.481Z,38.28
2018-11-21T05:36:59.832Z,38.33
2018-11-21T05:38:03.207Z,36.55
2018-11-21T05:39:09.552Z,42.40
2018-11-21T05:40:12.863Z,37.88
2018-11-21T05:41:16.177Z,34.50
2018-11-21T05:42:19.504Z,37.53
2018-11-21T05:43:22.840Z,33.05
2018-11-21T05:44:31.233Z,43.23
2018-11-21T05:45:29.486Z,36.68
2018-11-21T05:46:32.828Z,39.58
2018-11-21T05:47:36.153Z,41.95
2018-11-21T05:48:39.462Z,40.40
2018-11-21T05:49:42.798Z,36.03
2018-11-21T05:50:46.100Z,42.33
2018-11-21T05:51:49.460Z,37.63
2018-11-21T05:52:52.761Z,40.95
2018-11-21T05:53:56.096Z,35.70
2018-11-21T05:54:59.416Z,39.13
2018-11-21T05:56:02.732Z,37.45
2018-11-21T05:57:06.050Z,37.93
2018-11-21T05:58:09.825Z,33.53
2018-11-21T05:59:13.156Z,32.40
2018-11-21T06:00:16.465Z,35.48
2018-11-21T06:01:20.161Z,38.35
2018-11-21T06:02:23.503Z,36.23
2018-11-21T06:03:26.806Z,34.65
2018-11-21T06:04:30.105Z,33.55
2018-11-21T06:05:33.450Z,33.60
2018-11-21T06:06:36.753Z,36.05
2018-11-21T06:07:40.301Z,36.58
2018-11-21T06:08:43.669Z,36.73
2018-11-21T06:09:46.969Z,37.23
2018-11-21T06:10:50.724Z,37.98
2018-11-21T06:11:54.042Z,37.23
2018-11-21T06:12:57.363Z,42.67
2018-11-21T06:14:01.242Z,37.00
2018-11-21T06:15:05.076Z,39.45
2018-11-21T06:16:08.391Z,37.38
2018-11-21T06:17:11.801Z,38.75
2018-11-21T06:18:15.139Z,39.42
2018-11-21T06:19:18.483Z,39.63
2018-11-21T06:20:22.220Z,35.40
2018-11-21T06:21:25.526Z,45.28
2018-11-21T06:22:29.204Z,38.28
2018-11-21T06:23:32.906Z,38.00
2018-11-21T06:24:36.263Z,37.40
2018-11-21T06:25:40.006Z,36.88
2018-11-21T06:26:43.355Z,36.73
2018-11-21T06:27:46.731Z,33.78
2018-11-21T06:28:50.130Z,38.28
2018-11-21T06:29:53.449Z,41.48
2018-11-21T06:30:56.748Z,40.17
2018-11-21T06:32:00.070Z,41.48
2018-11-21T06:33:03.410Z,40.38
2018-11-21T06:34:07.725Z,43.45
2018-11-21T06:35:11.388Z,36.13
2018-11-21T06:36:14.677Z,39.83
2018-11-21T06:37:18.385Z,42.17
2018-11-21T06:38:21.687Z,43.45
2018-11-21T06:39:24.997Z,36.28
2018-11-21T06:40:28.317Z,37.08
2018-11-21T06:41:31.639Z,38.92
2018-11-21T06:42:34.986Z,39.48
2018-11-21T06:43:38.307Z,34.45
2018-11-21T06:44:41.640Z,36.38
2018-11-21T06:45:44.947Z,35.78
2018-11-21T06:46:48.295Z,35.83
2018-11-21T06:47:51.905Z,40.83
2018-11-21T06:48:55.201Z,44.88
2018-11-21T06:49:58.527Z,39.25
2018-11-21T06:51:01.881Z,38.15
2018-11-21T06:52:05.203Z,45.30
2018-11-21T06:53:08.506Z,40.67
2018-11-21T06:54:13.386Z,41.13
2018-11-21T06:55:16.681Z,40.95
2018-11-21T06:56:20.037Z,44.63
2018-11-21T06:57:23.341Z,38.78
2018-11-21T06:58:26.653Z,39.38
2018-11-21T06:59:29.946Z,40.20
2018-11-21T07:00:33.255Z,46.88
2018-11-21T07:01:37.057Z,40.38
2018-11-21T07:02:40.992Z,43.15
2018-11-21T07:03:44.731Z,37.30
2018-11-21T07:04:48.044Z,38.48
2018-11-21T07:05:51.350Z,40.12
2018-11-21T07:06:54.693Z,40.65
2018-11-21T07:08:01.408Z,41.37
2018-11-21T07:09:08.576Z,37.28
2018-11-21T07:10:15.650Z,40.38
2018-11-21T07:11:18.957Z,40.85
2018-11-21T07:12:22.409Z,43.78
2018-11-21T07:13:25.778Z,41.68
2018-11-21T07:14:29.090Z,44.50
2018-11-21T07:15:32.389Z,40.30
2018-11-21T07:16:36.596Z,45.75
2018-11-21T07:17:39.915Z,39.50
2018-11-21T07:18:43.501Z,37.80
2018-11-21T07:19:46.802Z,44.18
2018-11-21T07:20:50.103Z,45.40
2018-11-21T07:21:53.414Z,43.30
2018-11-21T07:22:56.710Z,41.23
2018-11-21T07:24:00.108Z,45.00
2018-11-21T07:25:04.401Z,41.73
2018-11-21T07:26:07.785Z,49.90
2018-11-21T07:27:11.088Z,40.33
2018-11-21T07:28:14.421Z,37.35
2018-11-21T07:29:17.793Z,39.78
2018-11-21T07:30:21.178Z,45.65
2018-11-21T07:31:24.486Z,46.75
2018-11-21T07:32:28.805Z,49.67
2018-11-21T07:33:32.114Z,42.60
2018-11-21T07:34:35.449Z,43.40
2018-11-21T07:35:38.808Z,44.83
2018-11-21T07:36:47.684Z,45.67
2018-11-21T07:37:51.000Z,42.08
2018-11-21T07:38:54.370Z,45.12
2018-11-21T07:39:57.672Z,48.85
2018-11-21T07:41:01.057Z,46.23
2018-11-21T07:42:04.356Z,47.40
2018-11-21T07:43:07.670Z,43.23
2018-11-21T07:44:11.084Z,46.60
2018-11-21T07:45:15.272Z,44.08
2018-11-21T07:46:18.619Z,49.53
2018-11-21T07:47:26.560Z,45.10
2018-11-21T07:48:25.235Z,48.70
2018-11-21T07:49:28.581Z,49.95
2018-11-21T07:50:31.888Z,47.38
2018-11-21T07:51:35.381Z,50.50
2018-11-21T07:52:38.733Z,51.60
2018-11-21T07:53:42.037Z,49.50
2018-11-21T07:54:45.352Z,48.75
2018-11-21T07:55:48.679Z,48.38
2018-11-21T07:57:31.840Z,47.15
2018-11-21T07:58:35.194Z,50.92
2018-11-21T07:59:38.880Z,48.78
2018-11-21T08:01:20.603Z,50.05
2018-11-21T08:02:30.238Z,49.48
2018-11-21T08:03:35.503Z,48.48
2018-11-21T08:04:58.041Z,54.83
2018-11-21T08:06:10.303Z,47.75
2018-11-21T08:07:24.124Z,51.83
2018-11-21T08:08:55.286Z,51.77
2018-11-21T08:10:23.555Z,43.73
2018-11-21T08:11:49.051Z,43.65
2018-11-21T08:13:15.892Z,50.03
2018-11-21T08:14:56.408Z,51.90
2018-11-21T08:16:21.745Z,50.05
2018-11-21T08:17:42.993Z,54.85
2018-11-21T08:19:24.037Z,51.88
2018-11-21T08:20:56.295Z,46.28
2018-11-21T08:22:21.790Z,46.68
2018-11-21T08:23:42.849Z,47.13
2018-11-21T08:25:11.517Z,50.17
2018-11-21T08:26:33.068Z,47.90
2018-11-21T08:27:49.912Z,49.73
2018-11-21T08:28:53.212Z,45.10
2018-11-21T08:29:56.518Z,52.70
2018-11-21T08:30:59.967Z,48.20
2018-11-21T08:32:03.276Z,46.95
2018-11-21T08:33:06.608Z,50.63
2018-11-21T08:34:09.972Z,51.15
2018-11-21T08:35:13.273Z,44.80
2018-11-21T08:36:16.592Z,51.63
2018-11-21T08:37:19.903Z,56.60
2018-11-21T08:38:23.709Z,55.48
2018-11-21T08:39:27.062Z,53.20
2018-11-21T08:40:30.409Z,54.13
2018-11-21T08:41:33.728Z,54.05
2018-11-21T08:42:37.042Z,51.88
2018-11-21T08:43:40.355Z,51.18
2018-11-21T08:44:43.689Z,53.10
2018-11-21T08:45:47.084Z,43.68
2018-11-21T08:46:50.423Z,52.17
2018-11-21T08:47:53.757Z,53.42
2018-11-21T08:48:57.066Z,56.83
2018-11-21T08:50:00.401Z,48.68
2018-11-21T08:51:03.756Z,42.25
2018-11-21T08:52:07.109Z,49.80
2018-11-21T08:53:10.823Z,56.55
2018-11-21T08:54:14.133Z,48.25
2018-11-21T08:55:17.440Z,47.58
2018-11-21T08:56:20.880Z,45.67
2018-11-21T08:57:24.187Z,55.52
2018-11-21T08:58:27.499Z,46.28
2018-11-21T08:59:30.805Z,48.33
2018-11-21T09:00:34.334Z,47.33
2018-11-21T09:01:37.681Z,49.33
2018-11-21T09:02:40.995Z,51.08
2018-11-21T09:03:44.318Z,48.80
2018-11-21T09:04:47.627Z,48.33
2018-11-21T09:05:50.940Z,45.73
2018-11-21T09:06:54.298Z,52.88
2018-11-21T09:07:57.610Z,45.83
2018-11-21T09:09:01.252Z,52.10
2018-11-21T09:10:06.129Z,49.30
2018-11-21T09:11:09.474Z,46.98
2018-11-21T09:12:15.415Z,50.80
2018-11-21T09:13:17.137Z,51.60
2018-11-21T09:14:20.509Z,48.28
2018-11-21T09:15:24.114Z,50.10
2018-11-21T09:16:27.436Z,53.02
2018-11-21T09:17:30.782Z,48.95
2018-11-21T09:18:34.088Z,48.52
2018-11-21T09:19:37.453Z,44.08
2018-11-21T09:20:40.773Z,49.53
2018-11-21T09:21:44.080Z,48.52
2018-11-21T09:22:47.387Z,52.48
2018-11-21T09:23:50.698Z,50.15
2018-11-21T09:24:54.084Z,47.35
2018-11-21T09:25:57.788Z,47.03
2018-11-21T09:27:01.124Z,47.43
2018-11-21T09:28:04.436Z,45.30
2018-11-21T09:29:07.751Z,50.50
2018-11-21T09:30:13.560Z,50.52
2018-11-21T09:31:16.861Z,42.40
2018-11-21T09:32:20.216Z,46.53
2018-11-21T09:33:23.524Z,46.05
2018-11-21T09:34:26.830Z,46.95
2018-11-21T09:35:30.513Z,45.55
2018-11-21T09:36:33.836Z,47.48
2018-11-21T09:37:37.146Z,47.70
2018-11-21T09:38:40.440Z,45.98
2018-11-21T09:39:43.749Z,43.83
2018-11-21T09:40:47.109Z,42.05
2018-11-21T09:41:50.832Z,46.25
2018-11-21T09:42:55.409Z,47.90
2018-11-21T09:43:58.696Z,45.88
2018-11-21T09:45:02.012Z,45.73
2018-11-21T09:46:05.454Z,48.30
2018-11-21T09:47:08.776Z,46.20
2018-11-21T09:48:12.096Z,46.00
2018-11-21T09:49:15.402Z,48.50
2018-11-21T09:50:20.759Z,42.45
2018-11-21T09:51:24.114Z,43.87
2018-11-21T09:52:27.410Z,46.95
2018-11-21T09:53:30.710Z,41.08
2018-11-21T09:54:34.015Z,40.38
2018-11-21T09:55:40.391Z,47.10
2018-11-21T09:56:40.677Z,41.45
2018-11-21T09:57:43.983Z,45.60
2018-11-21T09:58:47.681Z,45.38
2018-11-21T09:59:51.040Z,45.73
2018-11-21T10:01:31.338Z,48.68
2018-11-21T10:03:04.556Z,46.65
2018-11-21T10:04:07.857Z,39.42
2018-11-21T10:05:11.162Z,46.00
2018-11-21T10:06:19.713Z,45.88
2018-11-21T10:07:23.012Z,43.05
2018-11-21T10:08:39.651Z,41.88
2018-11-21T10:09:45.111Z,42.30
2018-11-21T10:10:48.410Z,41.20
2018-11-21T10:11:51.720Z,42.20
2018-11-21T10:12:55.086Z,40.48
2018-11-21T10:13:58.414Z,39.98
2018-11-21T10:15:02.693Z,41.25
2018-11-21T10:16:06.669Z,40.03
2018-11-21T10:17:10.076Z,35.17
2018-11-21T10:18:13.838Z,44.23
2018-11-21T10:19:17.157Z,43.87
2018-11-21T10:20:20.505Z,41.08
2018-11-21T10:21:25.453Z,42.27
2018-11-21T10:22:28.768Z,38.60
2018-11-21T10:23:32.404Z,47.27
2018-11-21T10:24:35.709Z,39.42
2018-11-21T10:25:39.065Z,46.95
2018-11-21T10:26:42.378Z,43.02
2018-11-21T10:27:45.759Z,40.90
2018-11-21T10:28:49.881Z,39.15
2018-11-21T10:29:53.195Z,41.70
2018-11-21T10:30:56.688Z,42.75
2018-11-21T10:31:59.986Z,43.15
2018-11-21T10:33:03.333Z,48.30
2018-11-21T10:34:06.636Z,42.23
2018-11-21T10:35:09.970Z,39.60
2018-11-21T10:36:13.382Z,42.53
2018-11-21T10:37:17.093Z,44.90
2018-11-21T10:38:20.388Z,44.38
2018-11-21T10:39:23.731Z,43.30
2018-11-21T10:40:27.037Z,37.00
2018-11-21T10:41:30.363Z,45.25
2018-11-21T10:42:33.721Z,38.78
2018-11-21T10:43:37.591Z,46.08
2018-11-21T10:44:40.889Z,35.63
2018-11-21T10:45:44.228Z,44.25
2018-11-21T10:46:47.523Z,38.05
2018-11-21T10:47:50.867Z,45.45
2018-11-21T10:48:54.183Z,39.65
2018-11-21T10:49:57.493Z,37.95
2018-11-21T10:51:00.804Z,38.75
2018-11-21T10:52:04.260Z,35.13
2018-11-21T10:53:07.630Z,39.27
2018-11-21T10:54:10.998Z,38.92
2018-11-21T10:55:14.298Z,39.27
2018-11-21T10:56:17.602Z,46.60
2018-11-21T10:57:20.918Z,40.05
2018-11-21T10:58:24.288Z,38.80
2018-11-21T10:59:27.588Z,39.78
2018-11-21T11:00:52.657Z,38.45
2018-11-21T11:02:13.674Z,34.92
2018-11-21T11:03:28.244Z,37.83
2018-11-21T11:04:45.340Z,37.65
2018-11-21T11:06:08.276Z,36.30
2018-11-21T11:07:45.867Z,35.23
2018-11-21T11:09:07.142Z,35.83
2018-11-21T11:10:36.964Z,38.40
2018-11-21T11:11:59.442Z,43.87
2018-11-21T11:13:37.690Z,40.55
2018-11-21T11:14:59.163Z,37.13
2018-11-21T11:16:19.785Z,44.23
2018-11-21T11:17:40.988Z,36.77
2018-11-21T11:18:59.843Z,31.02
2018-11-21T11:20:31.254Z,31.60
2018-11-21T11:21:52.805Z,37.33
2018-11-21T11:23:19.848Z,35.55
2018-11-21T11:24:41.273Z,32.17
2018-11-21T11:26:09.683Z,28.95
2018-11-21T11:27:41.235Z,34.53
2018-11-21T11:29:06.512Z,43.15
2018-11-21T11:30:28.691Z,28.92
2018-11-21T11:31:49.597Z,31.85
2018-11-21T11:32:59.532Z,32.33
2018-11-21T11:34:29.001Z,34.15
2018-11-21T11:35:50.952Z,32.08
2018-11-21T11:37:06.869Z,32.53
2018-11-21T11:38:39.615Z,31.40
2018-11-21T11:40:11.673Z,27.85
2018-11-21T11:41:33.049Z,30.75
2018-11-21T11:42:55.595Z,29.20
2018-11-21T11:44:16.991Z,32.00
2018-11-21T11:45:38.162Z,31.37
2018-11-21T11:47:00.661Z,28.80
2018-11-21T11:48:32.755Z,26.55
2018-11-21T11:50:10.344Z,33.42
2018-11-21T11:51:31.569Z,30.15
2018-11-21T11:52:52.855Z,33.30
2018-11-21T11:54:05.455Z,27.17
2018-11-21T11:55:31.744Z,32.88
2018-11-21T11:56:49.453Z,28.87
2018-11-21T11:58:17.319Z,28.57
2018-11-21T11:59:55.075Z,26.20
2018-11-21T12:01:23.469Z,24.70
2018-11-21T12:02:45.092Z,27.02
2018-11-21T12:04:22.598Z,27.27
2018-11-21T12:05:43.987Z,27.32
2018-11-21T12:07:05.113Z,26.45
2018-11-21T12:08:33.504Z,26.45
2018-11-21T12:09:54.326Z,30.72
2018-11-21T12:11:15.661Z,24.25
2018-11-21T12:12:40.892Z,28.90
2018-11-21T12:14:01.961Z,29.32
2018-11-21T12:15:37.382Z,28.95
2018-11-21T12:16:53.834Z,31.05
2018-11-21T12:18:19.291Z,31.23
2018-11-21T12:19:44.804Z,28.57
2018-11-21T12:21:06.219Z,29.05
2018-11-21T12:22:27.471Z,31.25
2018-11-21T12:23:55.999Z,27.73
2018-11-21T12:25:36.683Z,28.80
2018-11-21T12:26:59.178Z,29.10
2018-11-21T12:28:13.467Z,36.77
2018-11-21T12:29:45.278Z,35.50
2018-11-21T12:31:10.599Z,34.30
2018-11-21T12:32:33.465Z,29.25
2018-11-21T12:33:54.244Z,30.48
2018-11-21T12:35:15.599Z,33.28
2018-11-21T12:36:40.913Z,29.45
2018-11-21T12:38:02.099Z,30.25
2018-11-21T12:39:23.560Z,31.00
2018-11-21T12:41:01.003Z,30.90
2018-11-21T12:42:36.151Z,27.02
2018-11-21T12:44:14.364Z,28.45
2018-11-21T12:45:36.910Z,29.05
2018-11-21T12:47:07.213Z,27.55
2018-11-21T12:48:32.457Z,28.12
2018-11-21T12:49:43.508Z,27.05
2018-11-21T12:51:03.786Z,28.35
2018-11-21T12:52:30.400Z,31.52
2018-11-21T12:53:51.400Z,31.02
2018-11-21T12:55:12.482Z,27.70
2018-11-21T12:56:36.189Z,36.08
2018-11-21T12:58:17.049Z,35.30
2018-11-21T12:59:48.616Z,29.00
2018-11-21T13:01:12.425Z,30.45
2018-11-21T13:02:34.986Z,27.75
2018-11-21T13:03:58.532Z,28.40
2018-11-21T13:05:21.038Z,26.65
2018-11-21T13:06:42.382Z,28.95
2018-11-21T13:08:23.257Z,26.50
2018-11-21T13:09:45.738Z,27.87
2018-11-21T13:11:06.916Z,27.02
2018-11-21T13:12:27.782Z,33.05
2018-11-21T13:13:49.102Z,28.77
2018-11-21T13:15:17.379Z,26.33
2018-11-21T13:16:39.661Z,30.55
2018-11-21T13:18:11.295Z,27.40
2018-11-21T13:19:39.865Z,27.60
2018-11-21T13:20:52.714Z,28.83
2018-11-21T13:22:16.680Z,26.35
2018-11-21T13:23:37.911Z,27.77
2018-11-21T13:25:13.108Z,31.25
2018-11-21T13:26:40.043Z,25.37
2018-11-21T13:28:01.258Z,34.48
2018-11-21T13:29:31.205Z,29.85
2018-11-21T13:30:56.367Z,39.70
2018-11-21T13:32:18.260Z,31.48
2018-11-21T13:33:46.229Z,29.18
2018-11-21T13:35:00.726Z,30.70
2018-11-21T13:36:21.157Z,29.75
2018-11-21T13:37:46.507Z,32.00
2018-11-21T13:39:08.112Z,30.85
2018-11-21T13:40:29.381Z,28.67
2018-11-21T13:41:52.015Z,30.85
2018-11-21T13:43:08.003Z,32.40
2018-11-21T13:44:33.017Z,32.80
2018-11-21T13:46:04.743Z,32.83
2018-11-21T13:47:36.511Z,38.02
2018-11-21T13:48:57.356Z,29.25
2018-11-21T13:50:18.695Z,31.07
2018-11-21T13:51:39.875Z,35.38
2018-11-21T13:53:01.389Z,31.80
2018-11-21T13:54:27.103Z,33.28
2018-11-21T13:55:30.412Z,32.10
2018-11-21T13:56:33.821Z,33.30
2018-11-21T13:57:37.161Z,33.42
2018-11-21T13:58:40.506Z,37.70
2018-11-21T13:59:43.815Z,35.80
2018-11-21T14:00:47.118Z,36.90
2018-11-21T14:01:50.476Z,37.50
2018-11-21T14:02:53.774Z,35.83
2018-11-21T14:03:57.068Z,36.10
2018-11-21T14:05:00.384Z,36.70
2018-11-21T14:06:03.692Z,40.95
2018-11-21T14:07:07.593Z,37.98
2018-11-21T14:08:10.889Z,38.92
2018-11-21T14:09:18.625Z,38.67
2018-11-21T14:10:21.928Z,40.60
2018-11-21T14:11:25.247Z,37.67
2018-11-21T14:12:28.586Z,32.90
2018-11-21T14:13:31.903Z,36.35
2018-11-21T14:14:35.203Z,38.48
2018-11-21T14:15:38.502Z,42.27
2018-11-21T14:16:41.857Z,42.85
2018-11-21T14:17:45.153Z,38.05
2018-11-21T14:18:48.452Z,41.60
2018-11-21T14:19:51.759Z,37.35
2018-11-21T14:20:55.056Z,41.45
2018-11-21T14:21:58.407Z,42.35
2018-11-21T14:23:01.715Z,44.15
2018-11-21T14:24:05.212Z,44.42
2018-11-21T14:25:10.129Z,42.30
2018-11-21T14:26:13.435Z,38.50
2018-11-21T14:27:16.767Z,39.58
2018-11-21T14:28:20.062Z,46.75
2018-11-21T14:29:23.365Z,40.43
2018-11-21T14:30:26.679Z,46.18
2018-11-21T14:31:29.968Z,45.00